createdAt,value
2023-05-10T00:01:06.720Z,9.77
2023-05-10T00:04:09.671Z,10.85
2023-05-10T00:07:12.435Z,12.57
2023-05-10T00:10:15.515Z,9.40
2023-05-10T00:13:18.554Z,9.83
2023-05-10T00:16:21.448Z,7.82
2023-05-10T00:19:24.189Z,11.10
2023-05-10T00:22:27.233Z,9.77
2023-05-10T00:25:30.134Z,10.77
2023-05-10T00:28:32.918Z,14.17
2023-05-10T00:31:35.897Z,9.90
2023-05-10T00:34:39.213Z,11.85
2023-05-10T00:37:42.169Z,10.60
2023-05-10T00:40:45.213Z,11.00
2023-05-10T00:43:55.888Z,14.80
2023-05-10T00:47:00.554Z,10.82
2023-05-10T00:50:03.860Z,11.63
2023-05-10T00:53:08.505Z,15.52
2023-05-10T00:56:11.634Z,12.68
2023-05-10T00:59:14.500Z,16.37
2023-05-10T01:02:17.399Z,14.00
2023-05-10T01:05:20.550Z,14.50
2023-05-10T01:08:23.624Z,14.55
2023-05-10T01:11:26.881Z,13.43
2023-05-10T01:14:30.094Z,13.27
2023-05-10T01:17:34.260Z,12.73
2023-05-10T01:20:44.544Z,16.73
2023-05-10T01:24:02.532Z,15.80
2023-05-10T01:27:27.280Z,17.33
2023-05-10T01:30:48.967Z,15.27
2023-05-10T01:34:08.158Z,14.35
2023-05-10T01:37:19.150Z,15.73
2023-05-10T01:40:28.506Z,15.60
2023-05-10T01:43:38.350Z,16.95
2023-05-10T01:46:42.008Z,17.63
2023-05-10T01:49:53.457Z,17.33
2023-05-10T01:52:58.533Z,16.05
2023-05-10T01:56:03.313Z,20.67
2023-05-10T01:59:12.605Z,15.43
2023-05-10T02:02:16.913Z,19.00
2023-05-10T02:05:22.957Z,18.38
2023-05-10T02:08:26.889Z,21.80
2023-05-10T02:11:30.975Z,23.50
2023-05-10T02:14:37.371Z,18.52
2023-05-10T02:17:42.815Z,18.10
2023-05-10T02:20:49.430Z,20.83
2023-05-10T02:23:53.789Z,20.35
2023-05-10T02:26:58.121Z,20.95
2023-05-10T02:30:01.781Z,21.13
2023-05-10T02:33:07.512Z,19.77
2023-05-10T02:36:11.820Z,22.48
2023-05-10T02:39:16.805Z,23.90
2023-05-10T02:42:24.117Z,21.77
2023-05-10T02:45:30.393Z,25.17
2023-05-10T02:48:33.217Z,23.93
2023-05-10T02:51:38.356Z,22.85
2023-05-10T02:54:46.421Z,23.42
2023-05-10T02:58:03.242Z,23.77
2023-05-10T03:01:06.132Z,26.00
2023-05-10T03:04:09.389Z,24.77
2023-05-10T03:07:12.807Z,31.85
2023-05-10T03:10:18.531Z,25.65
2023-05-10T03:13:45.365Z,27.77
2023-05-10T03:16:57.903Z,26.88
2023-05-10T03:20:08.606Z,29.37
2023-05-10T03:23:38.372Z,27.70
2023-05-10T03:26:44.633Z,29.48
2023-05-10T03:29:53.823Z,27.33
2023-05-10T03:32:58.150Z,29.08
2023-05-10T03:36:01.491Z,28.07
2023-05-10T03:39:04.656Z,30.23
2023-05-10T03:42:07.566Z,28.92
2023-05-10T03:45:10.807Z,28.15
2023-05-10T03:48:14.955Z,30.02
2023-05-10T03:51:18.824Z,30.23
2023-05-10T03:54:21.735Z,29.20
2023-05-10T03:57:24.600Z,29.80
2023-05-10T04:00:27.518Z,27.05
2023-05-10T04:03:32.048Z,30.77
2023-05-10T04:06:36.322Z,29.93
2023-05-10T04:09:39.205Z,27.52
2023-05-10T04:12:42.241Z,27.75
2023-05-10T04:15:45.078Z,24.08
2023-05-10T04:18:47.903Z,23.65
2023-05-10T04:21:50.754Z,23.57
2023-05-10T04:24:53.631Z,20.63
2023-05-10T04:27:56.443Z,18.33
2023-05-10T04:31:03.991Z,18.15
2023-05-10T04:34:06.884Z,15.98
2023-05-10T04:37:09.778Z,14.03
2023-05-10T04:40:13.047Z,18.10
2023-05-10T04:43:15.781Z,15.95
2023-05-10T04:46:18.627Z,12.80
2023-05-10T04:49:21.763Z,17.73
2023-05-10T04:52:24.505Z,13.50
2023-05-10T04:55:28.035Z,11.40
2023-05-10T04:58:30.975Z,15.43
2023-05-10T05:01:34.190Z,13.23
2023-05-10T05:04:37.023Z,12.55
2023-05-10T05:07:39.909Z,14.33
2023-05-10T05:10:42.838Z,12.93
2023-05-10T05:13:48.579Z,11.73
2023-05-10T05:16:51.551Z,10.60
2023-05-10T05:19:54.685Z,9.70
2023-05-10T05:22:57.571Z,8.57
2023-05-10T05:26:03.491Z,12.43
2023-05-10T05:29:08.744Z,11.00
2023-05-10T05:32:12.573Z,11.00
2023-05-10T05:35:15.792Z,11.43
2023-05-10T05:38:18.897Z,8.87
2023-05-10T05:41:22.681Z,9.20
2023-05-10T05:44:26.161Z,9.70
2023-05-10T05:47:29.124Z,13.15
2023-05-10T05:50:32.520Z,9.05
2023-05-10T05:59:07.465Z,9.18
2023-05-10T06:02:11.030Z,13.15
2023-05-10T06:05:15.346Z,10.95
2023-05-10T06:08:19.005Z,8.05
2023-05-10T06:11:25.108Z,9.10
2023-05-10T06:14:28.622Z,9.80
2023-05-10T06:17:32.382Z,8.85
2023-05-10T06:20:39.476Z,11.75
2023-05-10T06:23:46.320Z,9.90
2023-05-10T06:26:51.092Z,9.97
2023-05-10T06:30:02.082Z,9.95
2023-05-10T06:33:09.661Z,12.02
2023-05-10T06:36:15.455Z,11.18
2023-05-10T06:39:18.521Z,11.80
2023-05-10T06:42:21.323Z,10.97
2023-05-10T06:45:25.073Z,14.45
2023-05-10T06:48:28.139Z,11.43
2023-05-10T06:51:30.966Z,12.90
2023-05-10T06:54:54.014Z,9.65
2023-05-10T06:57:57.203Z,12.07
2023-05-10T07:01:04.478Z,11.70
2023-05-10T07:04:08.990Z,9.90
2023-05-10T07:07:17.337Z,9.15
2023-05-10T07:10:20.629Z,12.25
2023-05-10T07:13:23.789Z,11.70
2023-05-10T07:16:27.024Z,8.52
2023-05-10T07:19:33.850Z,10.05
2023-05-10T07:22:37.264Z,10.55
2023-05-10T07:25:40.230Z,9.85
2023-05-10T07:32:44.047Z,7.50
2023-05-10T07:35:49.928Z,7.35
2023-05-10T07:38:53.104Z,9.45
2023-05-10T07:41:56.701Z,10.90
2023-05-10T07:44:59.505Z,9.33
2023-05-10T07:48:03.290Z,8.90
2023-05-10T07:51:08.471Z,16.08
2023-05-10T07:54:11.629Z,12.27
2023-05-10T07:57:16.531Z,9.25
2023-05-10T08:00:21.281Z,6.30
2023-05-10T08:03:24.299Z,6.65
2023-05-10T08:06:31.367Z,11.00
2023-05-10T08:09:34.693Z,8.63
2023-05-10T08:12:37.628Z,11.48
2023-05-10T08:15:40.736Z,7.20
2023-05-10T08:18:45.341Z,6.63
2023-05-10T08:21:48.790Z,11.52
2023-05-10T08:24:51.645Z,11.98
2023-05-10T08:27:54.415Z,7.95
2023-05-10T08:30:57.825Z,8.70
2023-05-10T08:34:02.027Z,8.90
2023-05-10T08:47:08.878Z,8.70
2023-05-10T08:55:22.610Z,7.63
2023-05-10T08:59:00.314Z,6.63
2023-05-10T09:03:30.851Z,8.55
2023-05-10T09:12:08.266Z,6.67
2023-05-10T09:15:13.359Z,6.03
2023-05-10T09:18:16.755Z,6.53
2023-05-10T09:21:21.781Z,7.63
2023-05-10T09:24:28.252Z,9.05
2023-05-10T09:27:31.194Z,9.07
2023-05-10T09:30:34.473Z,7.50
2023-05-10T09:33:46.303Z,10.27
2023-05-10T09:37:02.087Z,4.80
2023-05-10T09:40:32.301Z,6.88
2023-05-10T09:43:41.619Z,6.33
2023-05-10T09:46:53.401Z,4.63
2023-05-10T09:50:04.274Z,5.50
2023-05-10T09:53:09.114Z,5.65
2023-05-10T09:56:45.912Z,5.00
2023-05-10T09:59:51.957Z,7.97
2023-05-10T10:02:59.990Z,7.32
2023-05-10T10:06:03.414Z,7.53
2023-05-10T10:09:10.493Z,5.18
2023-05-10T10:12:16.398Z,6.43
2023-05-10T10:15:21.713Z,5.30
2023-05-10T10:18:28.339Z,5.65
2023-05-10T10:21:40.960Z,5.85
2023-05-10T10:24:44.363Z,7.07
2023-05-10T10:27:54.957Z,5.70
2023-05-10T10:31:05.455Z,4.87
2023-05-10T10:38:08.763Z,7.32
2023-05-10T10:41:28.024Z,6.55
2023-05-10T10:44:36.780Z,4.47
2023-05-10T10:47:39.738Z,7.67
2023-05-10T10:50:47.223Z,5.28
2023-05-10T10:53:50.565Z,8.57
2023-05-10T10:57:18.432Z,6.70
2023-05-10T11:00:22.303Z,8.88
2023-05-10T11:03:25.988Z,5.10
2023-05-10T11:06:38.672Z,7.10
2023-05-10T11:09:42.340Z,4.45
2023-05-10T11:13:11.331Z,4.88
2023-05-10T11:16:16.412Z,5.35
2023-05-10T11:19:20.999Z,6.23
2023-05-10T11:22:26.876Z,4.10
2023-05-10T11:25:30.027Z,5.10
2023-05-10T11:28:33.442Z,6.63
2023-05-10T11:35:14.860Z,4.93
2023-05-10T11:38:17.746Z,5.65
2023-05-10T11:41:24.744Z,7.55
2023-05-10T11:44:35.901Z,7.95
2023-05-10T11:47:42.591Z,6.88
2023-05-10T11:50:49.793Z,3.70
2023-05-10T11:53:56.499Z,5.85
2023-05-10T11:56:59.370Z,6.93
2023-05-10T12:00:04.819Z,4.63
2023-05-10T12:03:14.719Z,3.10
2023-05-10T12:06:29.804Z,5.27
2023-05-10T12:13:51.085Z,7.00
2023-05-10T12:16:54.112Z,3.38
2023-05-10T12:20:13.959Z,4.13
2023-05-10T12:23:48.304Z,6.13
2023-05-10T12:26:52.827Z,4.97
2023-05-10T12:33:16.229Z,5.90
2023-05-10T12:36:26.768Z,6.32
2023-05-10T12:39:55.550Z,6.43
2023-05-10T12:42:58.661Z,5.75
2023-05-10T12:46:12.592Z,5.55
2023-05-10T12:49:21.088Z,3.85
2023-05-10T12:52:24.371Z,3.70
2023-05-10T12:55:27.226Z,2.70
2023-05-10T12:58:35.611Z,4.05
2023-05-10T13:01:39.887Z,4.85
2023-05-10T13:04:45.229Z,3.00
2023-05-10T13:08:14.663Z,4.30
2023-05-10T13:11:21.078Z,7.13
2023-05-10T13:14:23.944Z,5.93
2023-05-10T13:17:26.954Z,3.28
2023-05-10T13:20:34.045Z,8.15
2023-05-10T13:23:39.677Z,6.22
2023-05-10T13:26:42.714Z,3.47
2023-05-10T13:30:25.538Z,6.95
2023-05-10T13:33:29.069Z,5.20
2023-05-10T13:36:32.751Z,8.68
2023-05-10T13:39:35.888Z,2.88
2023-05-10T13:42:38.957Z,4.63
2023-05-10T13:45:42.005Z,7.47
2023-05-10T13:48:44.809Z,5.18
2023-05-10T13:51:47.660Z,2.45
2023-05-10T13:54:50.527Z,8.60
2023-05-10T13:57:53.277Z,3.57
2023-05-10T14:00:58.192Z,5.00
2023-05-10T14:04:01.371Z,2.65
2023-05-10T14:07:04.378Z,2.42
2023-05-10T14:13:30.797Z,2.13
2023-05-10T14:16:34.021Z,3.83
2023-05-10T14:19:36.864Z,3.47
2023-05-10T14:22:39.681Z,2.85
2023-05-10T14:25:42.684Z,5.90
2023-05-10T14:28:45.624Z,5.03
2023-05-10T14:31:51.553Z,6.05
2023-05-10T14:34:54.411Z,3.42
2023-05-10T14:37:57.955Z,5.13
2023-05-10T14:41:00.886Z,8.57
2023-05-10T14:44:04.552Z,4.60
2023-05-10T14:47:07.809Z,3.92
2023-05-10T14:50:14.706Z,4.28
2023-05-10T14:53:21.736Z,9.77
2023-05-10T14:56:24.460Z,6.13
2023-05-10T14:59:27.265Z,5.47
2023-05-10T15:02:31.907Z,3.72
2023-05-10T15:05:35.466Z,4.93
2023-05-10T15:08:38.977Z,3.47
2023-05-10T15:11:41.763Z,5.72
2023-05-10T15:14:44.634Z,3.67
2023-05-10T15:17:48.639Z,2.38
2023-05-10T15:20:51.464Z,5.75
2023-05-10T15:23:54.353Z,3.22
2023-05-10T15:26:57.180Z,3.33
2023-05-10T15:30:00.793Z,2.30
2023-05-10T15:33:03.634Z,2.90
2023-05-10T15:36:07.781Z,3.90
2023-05-10T15:39:11.043Z,3.33
2023-05-10T15:42:13.856Z,3.58
2023-05-10T15:45:17.007Z,6.00
2023-05-10T15:48:19.957Z,4.03
2023-05-10T15:51:23.097Z,3.80
2023-05-10T15:54:25.910Z,2.13
2023-05-10T15:57:28.698Z,5.25
2023-05-10T16:00:31.461Z,4.83
2023-05-10T16:03:36.763Z,5.72
2023-05-10T16:06:40.375Z,3.75
2023-05-10T16:09:43.328Z,4.07
2023-05-10T16:12:46.131Z,4.45
2023-05-10T16:15:49.120Z,5.43
2023-05-10T16:19:03.396Z,6.78
2023-05-10T16:22:17.840Z,3.80
2023-05-10T16:25:20.575Z,3.35
2023-05-10T16:28:30.909Z,6.78
2023-05-10T16:31:34.641Z,3.63
2023-05-10T16:34:37.739Z,4.18
2023-05-10T16:37:40.474Z,4.32
2023-05-10T16:40:43.227Z,3.92
2023-05-10T16:43:46.272Z,7.05
2023-05-10T16:46:49.122Z,2.27
2023-05-10T16:49:52.106Z,9.95
2023-05-10T16:52:54.949Z,6.93
2023-05-10T16:55:57.729Z,2.72
2023-05-10T16:59:00.704Z,6.53
2023-05-10T17:02:03.638Z,3.33
2023-05-10T17:05:06.828Z,3.90
2023-05-10T17:08:10.385Z,3.70
2023-05-10T17:11:13.117Z,2.58
2023-05-10T17:14:16.060Z,7.20
2023-05-10T17:17:18.871Z,4.57
2023-05-10T17:20:21.979Z,4.07
2023-05-10T17:23:24.736Z,2.28
2023-05-10T17:26:27.996Z,3.13
2023-05-10T17:29:32.188Z,4.00
2023-05-10T17:32:35.023Z,2.10
2023-05-10T17:35:46.793Z,3.33
2023-05-10T17:38:50.569Z,5.35
2023-05-10T17:41:53.352Z,1.63
2023-05-10T17:44:56.361Z,3.42
2023-05-10T17:47:59.150Z,4.87
2023-05-10T17:51:01.930Z,4.80
2023-05-10T17:54:04.790Z,4.18
2023-05-10T17:57:07.838Z,3.65
2023-05-10T18:00:11.136Z,6.38
2023-05-10T18:03:14.561Z,1.50
2023-05-10T18:06:17.423Z,3.13
2023-05-10T18:09:21.378Z,3.00
2023-05-10T18:12:24.392Z,3.55
2023-05-10T18:15:27.891Z,7.25
2023-05-10T18:18:30.702Z,3.43
2023-05-10T18:21:33.408Z,5.15
2023-05-10T18:24:39.654Z,5.22
2023-05-10T18:27:43.964Z,10.68
2023-05-10T18:30:46.847Z,5.13
2023-05-10T18:33:49.639Z,7.63
2023-05-10T18:36:52.832Z,3.80
2023-05-10T18:39:57.822Z,6.63
2023-05-10T18:43:00.654Z,7.90
2023-05-10T18:46:03.398Z,4.30
2023-05-10T18:49:38.475Z,4.70
2023-05-10T18:52:41.512Z,2.50
2023-05-10T18:55:44.907Z,3.80
2023-05-10T18:58:49.604Z,3.22
2023-05-10T19:01:54.237Z,6.70
2023-05-10T19:04:59.752Z,3.47
2023-05-10T19:08:02.585Z,4.18
2023-05-10T19:11:05.447Z,9.80
2023-05-10T19:14:09.085Z,2.33
2023-05-10T19:17:14.962Z,3.25
2023-05-10T19:20:18.232Z,2.57
2023-05-10T19:23:21.129Z,3.33
2023-05-10T19:26:27.040Z,3.10
2023-05-10T19:29:30.097Z,4.28
2023-05-10T19:32:33.004Z,4.10
2023-05-10T19:35:35.745Z,1.97
2023-05-10T19:38:38.911Z,3.03
2023-05-10T19:41:48.354Z,7.90
2023-05-10T19:45:05.270Z,5.22
2023-05-10T19:48:11.128Z,2.30
2023-05-10T19:51:17.723Z,4.97
2023-05-10T19:54:27.046Z,6.07
2023-05-10T19:57:30.234Z,7.65
2023-05-10T20:00:33.095Z,8.50
2023-05-10T20:03:36.618Z,2.55
2023-05-10T20:06:39.616Z,4.03
2023-05-10T20:09:44.445Z,4.63
2023-05-10T20:12:51.379Z,6.15
2023-05-10T20:15:58.643Z,5.05
2023-05-10T20:19:01.573Z,6.05
2023-05-10T20:22:05.539Z,7.07
2023-05-10T20:25:08.968Z,5.35
2023-05-10T20:28:13.252Z,6.90
2023-05-10T20:31:16.016Z,4.07
2023-05-10T20:34:18.819Z,3.63
2023-05-10T20:37:21.651Z,4.07
2023-05-10T20:40:24.663Z,4.65
2023-05-10T20:43:29.275Z,5.40
2023-05-10T20:46:33.082Z,3.15
2023-05-10T20:49:37.997Z,3.65
2023-05-10T20:52:40.931Z,5.60
2023-05-10T20:55:43.603Z,7.57
2023-05-10T20:58:46.297Z,5.63
2023-05-10T21:01:49.139Z,4.13
2023-05-10T21:04:52.031Z,4.03
2023-05-10T21:07:57.279Z,3.20
2023-05-10T21:11:04.798Z,3.80
2023-05-10T21:14:08.094Z,6.55
2023-05-10T21:17:11.033Z,5.18
2023-05-10T21:20:14.145Z,3.42
2023-05-10T21:23:17.023Z,3.63
2023-05-10T21:26:19.877Z,5.68
2023-05-10T21:29:22.679Z,10.18
2023-05-10T21:32:25.495Z,5.18
2023-05-10T21:35:29.431Z,4.05
2023-05-10T21:38:33.203Z,10.97
2023-05-10T21:41:36.072Z,4.80
2023-05-10T21:44:38.883Z,10.23
2023-05-10T21:47:41.736Z,4.90
2023-05-10T21:50:44.466Z,5.50
2023-05-10T21:53:47.714Z,4.43
2023-05-10T21:56:51.243Z,5.10
2023-05-10T21:59:54.323Z,4.30
2023-05-10T22:02:57.156Z,8.27
2023-05-10T22:06:00.284Z,8.68
2023-05-10T22:09:03.084Z,5.17
2023-05-10T22:12:05.992Z,5.38
2023-05-10T22:15:10.882Z,4.05
2023-05-10T22:18:13.796Z,10.20
2023-05-10T22:21:16.606Z,4.10
2023-05-10T22:24:19.304Z,4.90
2023-05-10T22:27:22.049Z,4.15
2023-05-10T22:30:24.847Z,6.30
2023-05-10T22:33:27.597Z,7.38
2023-05-10T22:36:31.760Z,4.88
2023-05-10T22:39:35.127Z,5.17
2023-05-10T22:42:38.163Z,4.80
2023-05-10T22:45:40.896Z,6.50
2023-05-10T22:48:44.092Z,3.90
2023-05-10T22:51:46.808Z,5.65
2023-05-10T22:54:49.641Z,4.73
2023-05-10T22:57:52.576Z,5.03
2023-05-10T23:00:55.597Z,4.82
2023-05-10T23:03:58.506Z,6.97
2023-05-10T23:07:01.225Z,4.63
2023-05-10T23:10:04.734Z,6.57
2023-05-10T23:13:08.062Z,6.15
2023-05-10T23:16:10.855Z,8.15
2023-05-10T23:19:13.754Z,4.13
2023-05-10T23:22:16.489Z,7.55
2023-05-10T23:25:19.207Z,5.97
2023-05-10T23:28:21.920Z,5.47
2023-05-10T23:31:24.728Z,4.95
2023-05-10T23:34:27.431Z,6.75
2023-05-10T23:37:30.181Z,9.65
2023-05-10T23:40:32.972Z,5.83
2023-05-10T23:43:35.692Z,4.72
2023-05-10T23:46:38.488Z,5.68
2023-05-10T23:49:42.339Z,5.65
2023-05-10T23:52:45.033Z,6.60
2023-05-10T23:56:12.540Z,5.97
2023-05-10T23:59:15.550Z,5.95
